Time;durP1;ratioP1;P1;durP2;ratioP2;P2;SDS_P1;SDS_P2;PMS_P1;PMS_P2;Temp;Humidity;BMP_temperature;BMP_pressure;BME280_temperature;BME280_humidity;BME280_pressure;Samples;Min_cycle;Max_cycle;Signal;HPM_P1;HPM_P2
2021/11/23 00:02:17;;;;;;;9.70;6.47;;;3.90;99.90;;;;;;5065558;28;20442;-80
2021/11/23 00:04:42;;;;;;;8.67;6.23;;;3.80;99.90;;;;;;5053454;28;20025;-80
2021/11/23 00:07:08;;;;;;;13.43;7.27;;;3.90;99.90;;;;;;5053484;28;20021;-80
2021/11/23 00:09:34;;;;;;;9.13;6.70;;;3.80;99.90;;;;;;5043980;28;20103;-80
2021/11/23 00:11:59;;;;;;;14.03;8.60;;;3.80;99.90;;;;;;5047572;28;20036;-80
2021/11/23 00:14:25;;;;;;;8.70;6.17;;;3.80;99.90;;;;;;5039277;28;20029;-80
2021/11/23 00:16:50;;;;;;;10.00;6.33;;;3.70;99.90;;;;;;5052099;28;20481;-80
2021/11/23 00:19:16;;;;;;;11.07;6.80;;;3.80;99.90;;;;;;5056906;28;20020;-80
2021/11/23 00:21:41;;;;;;;13.90;8.50;;;3.70;99.90;;;;;;5063166;28;20178;-80
2021/11/23 00:24:08;;;;;;;14.33;8.90;;;3.50;99.90;;;;;;5053046;28;20069;-80
2021/11/23 00:26:34;;;;;;;12.27;8.13;;;3.40;99.90;;;;;;5051650;28;20037;-80
2021/11/23 00:28:59;;;;;;;16.57;9.50;;;3.40;99.90;;;;;;5039074;28;20021;-80
2021/11/23 00:31:25;;;;;;;8.93;6.37;;;3.40;99.90;;;;;;5046913;28;20068;-80
2021/11/23 00:33:51;;;;;;;13.17;7.43;;;3.50;99.90;;;;;;5055685;28;20065;-80
2021/11/23 00:36:17;;;;;;;18.07;9.23;;;3.60;99.90;;;;;;5040851;28;20193;-80
2021/11/23 00:38:44;;;;;;;20.10;9.97;;;3.50;99.90;;;;;;5051237;28;20047;-80
2021/11/23 00:41:11;;;;;;;11.37;8.03;;;3.60;99.90;;;;;;5052582;28;20021;-80
2021/11/23 00:43:37;;;;;;;18.23;9.80;;;3.50;99.90;;;;;;5044632;28;20029;-80
2021/11/23 00:46:03;;;;;;;14.03;8.63;;;3.40;99.90;;;;;;5060727;28;20017;-80
2021/11/23 00:48:29;;;;;;;12.97;8.37;;;3.40;99.90;;;;;;5044875;28;20470;-80
2021/11/23 00:50:54;;;;;;;10.57;7.20;;;3.30;99.90;;;;;;5043711;28;20377;-80
2021/11/23 00:53:20;;;;;;;15.20;8.73;;;3.30;99.90;;;;;;5042663;28;20099;-80
2021/11/23 00:55:45;;;;;;;16.60;9.57;;;3.40;99.90;;;;;;5062259;28;20017;-80
2021/11/23 00:58:11;;;;;;;15.07;8.97;;;3.40;99.90;;;;;;5052417;28;20021;-80
2021/11/23 01:00:37;;;;;;;13.30;8.57;;;3.30;99.90;;;;;;5052265;28;20028;-80
2021/11/23 01:03:03;;;;;;;12.30;8.43;;;3.30;99.90;;;;;;5036526;28;20383;-80
2021/11/23 01:05:28;;;;;;;13.90;8.37;;;3.50;99.90;;;;;;5038689;28;20473;-80
2021/11/23 01:07:55;;;;;;;12.23;7.73;;;3.50;99.90;;;;;;5052110;28;20100;-80
2021/11/23 01:10:21;;;;;;;22.90;11.13;;;3.50;99.90;;;;;;5051962;28;20055;-80
2021/11/23 01:12:47;;;;;;;13.83;8.63;;;3.40;99.90;;;;;;5050824;28;20035;-81
2021/11/23 01:15:13;;;;;;;15.57;8.93;;;3.40;99.90;;;;;;5052285;28;20021;-81
2021/11/23 01:17:38;;;;;;;33.87;12.57;;;3.30;99.90;;;;;;5052184;28;20024;-81
2021/11/23 01:20:07;;;;;;;11.97;8.10;;;3.30;99.90;;;;;;5042358;28;20467;-81
2021/11/23 01:22:32;;;;;;;14.00;8.33;;;3.40;99.90;;;;;;5047909;28;20557;-81
2021/11/23 01:24:58;;;;;;;15.00;9.27;;;3.30;99.90;;;;;;5040794;28;20029;-81
2021/11/23 01:27:24;;;;;;;11.60;8.10;;;3.20;99.90;;;;;;5064778;28;20040;-81
2021/11/23 01:29:49;;;;;;;15.60;8.90;;;3.20;99.90;;;;;;5052313;28;20033;-81
2021/11/23 01:32:15;;;;;;;12.67;8.63;;;3.20;99.90;;;;;;5052074;28;20474;-81
2021/11/23 01:34:40;;;;;;;12.93;8.57;;;3.20;99.90;;;;;;5054289;28;20437;-81
2021/11/23 01:37:06;;;;;;;14.27;9.23;;;3.20;99.90;;;;;;5065632;28;20021;-81
2021/11/23 01:39:32;;;;;;;11.30;7.70;;;3.00;99.90;;;;;;5059352;28;20033;-81
2021/11/23 01:41:58;;;;;;;11.20;8.57;;;3.00;99.90;;;;;;5064692;28;20218;-81
2021/11/23 01:44:24;;;;;;;11.63;8.57;;;2.90;99.90;;;;;;5060319;28;20018;-81
2021/11/23 01:46:50;;;;;;;12.53;7.90;;;2.90;99.90;;;;;;5042650;28;20029;-81
2021/11/23 01:49:16;;;;;;;10.57;7.70;;;2.80;99.90;;;;;;5055990;28;20025;-81
2021/11/23 01:51:42;;;;;;;11.20;8.30;;;2.80;99.90;;;;;;5055728;28;20191;-81
2021/11/23 01:54:08;;;;;;;10.63;7.30;;;2.90;99.90;;;;;;5055878;28;20017;-81
2021/11/23 01:56:33;;;;;;;11.17;7.90;;;2.90;99.90;;;;;;5067058;28;20040;-81
2021/11/23 01:59:00;;;;;;;9.93;7.27;;;2.80;99.90;;;;;;5044554;28;20029;-81
2021/11/23 02:01:25;;;;;;;12.20;8.20;;;2.70;99.90;;;;;;5055225;28;20511;-81
2021/11/23 02:03:51;;;;;;;12.00;8.30;;;2.80;99.90;;;;;;5062512;28;20017;-81
2021/11/23 02:06:17;;;;;;;11.97;8.30;;;2.70;99.90;;;;;;5062399;28;20020;-81
2021/11/23 02:08:43;;;;;;;11.80;7.53;;;2.70;99.90;;;;;;5060080;28;20456;-81
2021/11/23 02:11:08;;;;;;;11.70;7.87;;;2.70;99.90;;;;;;5075483;28;20081;-81
2021/11/23 02:13:34;;;;;;;10.30;7.43;;;2.80;99.90;;;;;;5074102;28;20021;-81
2021/11/23 02:16:00;;;;;;;11.13;7.80;;;2.90;99.90;;;;;;5061287;28;20036;-81
2021/11/23 02:18:27;;;;;;;11.50;8.00;;;2.80;99.90;;;;;;5053406;28;20447;-81
2021/11/23 02:20:53;;;;;;;10.60;8.07;;;2.80;99.90;;;;;;5052344;28;20020;-81
2021/11/23 02:23:20;;;;;;;9.63;7.30;;;2.80;99.90;;;;;;5055204;28;20024;-81
2021/11/23 02:25:47;;;;;;;10.20;7.87;;;2.80;99.90;;;;;;5039937;28;20108;-81
2021/11/23 02:28:13;;;;;;;11.83;7.97;;;2.70;99.90;;;;;;5053965;28;20055;-81
2021/11/23 02:30:51;;;;;;;11.17;8.33;;;2.80;99.90;;;;;;5054972;28;20369;-81
2021/11/23 02:33:19;;;;;;;11.03;7.10;;;2.70;99.90;;;;;;5055295;28;20458;-81
2021/11/23 02:35:46;;;;;;;11.13;7.47;;;2.60;99.90;;;;;;5055030;28;20025;-81
2021/11/23 02:38:13;;;;;;;12.30;8.50;;;2.50;99.90;;;;;;5069207;28;20382;-81
2021/11/23 02:40:39;;;;;;;15.73;8.00;;;2.50;99.90;;;;;;5054913;28;20086;-81
2021/11/23 02:43:05;;;;;;;12.47;8.80;;;2.50;99.90;;;;;;5054549;28;20038;-81
2021/11/23 02:45:31;;;;;;;12.27;8.40;;;2.40;99.90;;;;;;5052382;28;20021;-81
2021/11/23 02:47:59;;;;;;;11.93;7.83;;;2.40;99.90;;;;;;5052916;28;20029;-81
2021/11/23 02:50:25;;;;;;;12.93;8.87;;;2.40;99.90;;;;;;5043057;28;20088;-81
2021/11/23 02:52:52;;;;;;;12.27;7.90;;;2.50;99.90;;;;;;5054634;28;20104;-81
2021/11/23 02:55:21;;;;;;;12.30;7.80;;;2.40;99.90;;;;;;5048182;28;20053;-81
2021/11/23 02:57:46;;;;;;;11.37;7.97;;;2.60;99.90;;;;;;5060386;28;20028;-81
2021/11/23 03:00:18;;;;;;;13.50;7.93;;;2.60;99.90;;;;;;5051062;28;20425;-81
2021/11/23 03:02:45;;;;;;;11.50;8.00;;;2.70;99.90;;;;;;5057500;28;20028;-81
2021/11/23 03:05:11;;;;;;;12.57;8.23;;;2.60;99.90;;;;;;5056731;28;20017;-81
2021/11/23 03:07:37;;;;;;;14.03;8.13;;;2.50;99.90;;;;;;5053285;28;20017;-81
2021/11/23 03:10:05;;;;;;;12.83;8.40;;;2.50;99.90;;;;;;5058011;28;20111;-81
2021/11/23 03:12:31;;;;;;;10.60;7.87;;;2.50;99.90;;;;;;5054143;28;20021;-81
2021/11/23 03:14:59;;;;;;;11.70;8.67;;;2.50;99.90;;;;;;5046874;28;20021;-81
2021/11/23 03:17:25;;;;;;;13.40;8.23;;;2.40;99.90;;;;;;5061580;28;20032;-81
2021/11/23 03:19:51;;;;;;;13.20;7.97;;;2.50;99.90;;;;;;5053923;28;20495;-81
2021/11/23 03:22:17;;;;;;;11.67;8.47;;;2.50;99.90;;;;;;5054171;28;20025;-81
2021/11/23 03:24:43;;;;;;;13.07;8.33;;;2.50;99.90;;;;;;5053012;28;20054;-81
2021/11/23 03:27:10;;;;;;;12.03;8.60;;;2.50;99.90;;;;;;5039715;28;20047;-81
2021/11/23 03:29:37;;;;;;;11.87;8.23;;;2.40;99.90;;;;;;5053962;28;20143;-81
2021/11/23 03:32:04;;;;;;;15.80;9.00;;;2.30;99.90;;;;;;5067396;28;20025;-81
2021/11/23 03:34:36;;;;;;;12.13;8.60;;;2.20;99.90;;;;;;5053691;28;20047;-81
2021/11/23 03:37:08;;;;;;;10.87;7.63;;;2.10;99.90;;;;;;5053907;28;20057;-81
2021/11/23 03:39:34;;;;;;;12.20;8.57;;;2.20;99.90;;;;;;5042790;28;20096;-81
2021/11/23 03:41:59;;;;;;;11.00;8.07;;;2.20;99.90;;;;;;5061491;28;20029;-81
2021/11/23 03:44:26;;;;;;;12.73;8.63;;;2.30;99.90;;;;;;5051556;28;20066;-81
2021/11/23 03:46:52;;;;;;;13.80;8.73;;;2.30;99.90;;;;;;5069992;28;20020;-81
2021/11/23 03:49:18;;;;;;;14.90;8.87;;;2.20;99.90;;;;;;5053090;28;20040;-81
2021/11/23 03:51:43;;;;;;;12.20;8.77;;;2.20;99.90;;;;;;5053694;28;20477;-81
2021/11/23 03:54:09;;;;;;;12.93;8.87;;;2.20;99.90;;;;;;5053726;28;20528;-81
2021/11/23 03:56:35;;;;;;;14.50;8.70;;;2.10;99.90;;;;;;5051947;28;20025;-81
2021/11/23 03:59:01;;;;;;;12.67;8.80;;;2.20;99.90;;;;;;5053502;28;20449;-81
2021/11/23 04:01:27;;;;;;;14.57;9.33;;;2.20;99.90;;;;;;5053561;28;20115;-81
2021/11/23 04:03:52;;;;;;;11.23;8.23;;;2.20;99.90;;;;;;5053203;28;20024;-81
2021/11/23 04:06:18;;;;;;;11.20;8.07;;;2.20;99.90;;;;;;5053286;28;20105;-81
2021/11/23 04:08:44;;;;;;;13.33;8.80;;;2.20;99.90;;;;;;5053183;28;20033;-81
2021/11/23 04:11:09;;;;;;;21.67;13.67;;;2.20;99.90;;;;;;5053184;28;20028;-81
2021/11/23 04:13:35;;;;;;;24.87;17.47;;;2.20;99.90;;;;;;5053226;28;20021;-81
2021/11/23 04:16:00;;;;;;;12.90;9.67;;;2.20;99.90;;;;;;5054156;28;20111;-81
2021/11/23 04:18:26;;;;;;;13.27;10.23;;;2.20;99.90;;;;;;5064397;28;20021;-81
2021/11/23 04:20:52;;;;;;;13.87;10.77;;;2.10;99.90;;;;;;5052964;28;20107;-81
2021/11/23 04:23:17;;;;;;;14.10;10.50;;;2.10;99.90;;;;;;5052010;28;20021;-81
2021/11/23 04:25:43;;;;;;;15.73;12.20;;;2.10;99.90;;;;;;5041707;28;20025;-81
2021/11/23 04:28:08;;;;;;;13.83;10.40;;;2.00;99.90;;;;;;5035075;28;20040;-81
2021/11/23 04:30:34;;;;;;;16.27;11.40;;;1.90;99.90;;;;;;5051860;28;20522;-81
2021/11/23 04:33:00;;;;;;;13.33;9.90;;;1.80;99.90;;;;;;5038695;28;20025;-81
2021/11/23 04:35:25;;;;;;;14.57;10.77;;;1.80;99.90;;;;;;5051443;28;20029;-81
2021/11/23 04:37:51;;;;;;;13.87;9.93;;;1.80;99.90;;;;;;5065117;28;20035;-81
2021/11/23 04:40:18;;;;;;;16.60;10.17;;;1.70;99.90;;;;;;5048459;28;20482;-81
2021/11/23 04:42:44;;;;;;;15.53;9.73;;;1.70;99.90;;;;;;5032496;28;20030;-81
2021/11/23 04:45:12;;;;;;;15.97;10.03;;;1.70;99.90;;;;;;5050087;28;20017;-81
2021/11/23 04:47:38;;;;;;;15.03;9.77;;;1.60;99.90;;;;;;5052633;28;20032;-81
2021/11/23 04:50:07;;;;;;;12.70;9.07;;;1.60;99.90;;;;;;5036511;28;20032;-81
2021/11/23 04:52:32;;;;;;;14.17;9.53;;;1.70;99.90;;;;;;5040797;28;20017;-81
2021/11/23 04:54:58;;;;;;;12.93;8.50;;;1.60;99.90;;;;;;5038541;28;20078;-81
2021/11/23 04:57:24;;;;;;;12.37;9.03;;;1.60;99.90;;;;;;5072761;28;20028;-81
2021/11/23 04:59:50;;;;;;;14.17;9.43;;;1.50;99.90;;;;;;5060445;28;20021;-81
2021/11/23 05:02:16;;;;;;;14.20;9.70;;;1.50;99.90;;;;;;5051988;28;20078;-85
2021/11/23 05:04:42;;;;;;;12.23;8.63;;;1.50;99.90;;;;;;5050136;28;20469;-85
2021/11/23 05:07:08;;;;;;;14.40;9.37;;;1.50;99.90;;;;;;5054105;28;20035;-85
2021/11/23 05:09:33;;;;;;;12.93;8.27;;;1.60;99.90;;;;;;5062598;28;20466;-85
2021/11/23 05:11:59;;;;;;;12.50;8.70;;;1.50;99.90;;;;;;5038744;28;20021;-85
2021/11/23 05:14:25;;;;;;;12.03;8.00;;;1.60;99.90;;;;;;5064586;28;20539;-85
2021/11/23 05:16:50;;;;;;;16.13;11.03;;;1.60;99.90;;;;;;5052179;28;20417;-81
2021/11/23 05:19:16;;;;;;;22.30;13.07;;;1.60;99.90;;;;;;5052554;28;20096;-81
2021/11/23 05:21:41;;;;;;;49.83;26.97;;;1.60;99.90;;;;;;5052635;28;20040;-81
2021/11/23 05:24:11;;;;;;;41.37;22.03;;;1.60;99.90;;;;;;5052380;28;20389;-81
2021/11/23 05:26:37;;;;;;;13.80;9.63;;;1.60;99.90;;;;;;5033769;28;20437;-81
2021/11/23 05:29:04;;;;;;;12.87;9.27;;;1.60;99.90;;;;;;5043551;28;20017;-81
2021/11/23 05:31:32;;;;;;;12.63;9.10;;;1.60;99.90;;;;;;5052621;28;20461;-81
2021/11/23 05:34:01;;;;;;;13.40;9.33;;;1.60;99.90;;;;;;5052616;28;20082;-81
2021/11/23 05:36:27;;;;;;;16.13;10.33;;;1.60;99.90;;;;;;5052476;28;20040;-81
2021/11/23 05:38:52;;;;;;;14.93;9.67;;;1.50;99.90;;;;;;5043556;28;20029;-81
2021/11/23 05:41:20;;;;;;;13.83;9.70;;;1.60;99.90;;;;;;5046017;28;20053;-81
2021/11/23 05:43:46;;;;;;;13.30;10.13;;;1.40;99.90;;;;;;5051976;28;20021;-81
2021/11/23 05:46:14;;;;;;;14.70;10.27;;;1.40;99.90;;;;;;5063614;28;20032;-81
2021/11/23 05:48:39;;;;;;;15.97;9.50;;;1.30;99.90;;;;;;5049108;28;20020;-81
2021/11/23 05:51:05;;;;;;;14.00;9.67;;;1.30;99.90;;;;;;5032028;28;20411;-81
2021/11/23 05:53:36;;;;;;;14.90;9.23;;;1.30;99.90;;;;;;5034209;28;20411;-81
2021/11/23 05:56:02;;;;;;;15.60;10.00;;;1.30;99.90;;;;;;5050394;28;20495;-81
2021/11/23 05:58:28;;;;;;;13.60;9.47;;;1.30;99.90;;;;;;5051452;28;20087;-81
2021/11/23 06:00:54;;;;;;;14.33;9.87;;;1.30;99.90;;;;;;5063825;28;20040;-81
2021/11/23 06:03:19;;;;;;;13.43;10.33;;;1.40;99.90;;;;;;5065120;28;20072;-81
2021/11/23 06:05:45;;;;;;;12.97;9.17;;;1.40;99.90;;;;;;5051604;28;20120;-81
2021/11/23 06:08:11;;;;;;;17.03;10.17;;;1.40;99.90;;;;;;5061671;28;20025;-81
2021/11/23 06:10:39;;;;;;;18.83;10.43;;;1.50;99.90;;;;;;5054677;28;20069;-81
2021/11/23 06:13:06;;;;;;;12.60;8.90;;;1.50;99.90;;;;;;5042542;28;20068;-81
2021/11/23 06:15:32;;;;;;;13.23;8.80;;;1.60;99.90;;;;;;5047410;28;20025;-81
2021/11/23 06:18:02;;;;;;;15.03;9.60;;;1.60;99.90;;;;;;5062697;28;20043;-75
2021/11/23 06:20:30;;;;;;;15.50;9.40;;;1.50;99.90;;;;;;5053340;28;20025;-83
2021/11/23 06:23:01;;;;;;;12.33;9.77;;;1.50;99.90;;;;;;5037085;28;20087;-83
2021/11/23 06:25:27;;;;;;;13.87;8.80;;;1.50;99.90;;;;;;5053922;28;20407;-83
2021/11/23 06:27:53;;;;;;;13.50;9.17;;;1.40;99.90;;;;;;5068446;28;20067;-83
2021/11/23 06:30:19;;;;;;;15.20;9.50;;;1.50;99.90;;;;;;5054603;28;20029;-83
2021/11/23 06:32:45;;;;;;;13.30;9.57;;;1.50;99.90;;;;;;5060438;28;20033;-83
2021/11/23 06:35:11;;;;;;;14.07;9.73;;;1.40;99.90;;;;;;5075159;28;20034;-75
2021/11/23 06:37:37;;;;;;;15.70;10.10;;;1.40;99.90;;;;;;5075278;28;20039;-83
2021/11/23 06:40:09;;;;;;;14.70;10.23;;;1.40;99.90;;;;;;5057278;28;20025;-88
2021/11/23 06:42:35;;;;;;;15.30;9.87;;;1.40;99.90;;;;;;5054251;28;20037;-88
2021/11/23 06:45:01;;;;;;;15.43;10.73;;;1.30;99.90;;;;;;5053021;28;20097;-88
2021/11/23 06:47:26;;;;;;;17.23;10.27;;;1.20;99.90;;;;;;5054289;28;20021;-86
2021/11/23 06:49:52;;;;;;;14.53;10.03;;;1.20;99.90;;;;;;5052989;28;20111;-87
2021/11/23 06:52:19;;;;;;;16.00;10.10;;;1.30;99.90;;;;;;5043257;28;20445;-80
2021/11/23 06:54:46;;;;;;;15.60;10.60;;;1.20;99.90;;;;;;5041906;28;20037;-82
2021/11/23 06:57:12;;;;;;;16.10;10.87;;;1.30;99.90;;;;;;5041821;28;20032;-82
2021/11/23 06:59:39;;;;;;;14.27;10.27;;;1.40;99.90;;;;;;5044199;28;20033;-82
2021/11/23 07:02:07;;;;;;;17.47;11.07;;;1.40;99.90;;;;;;5045331;28;20035;-82
2021/11/23 07:04:34;;;;;;;15.90;9.77;;;1.40;99.90;;;;;;5043868;28;20030;-83
2021/11/23 07:07:00;;;;;;;16.43;10.37;;;1.40;99.90;;;;;;5044644;28;20031;-82
2021/11/23 07:09:28;;;;;;;13.83;9.83;;;1.50;99.90;;;;;;5045712;28;20025;-81
2021/11/23 07:11:54;;;;;;;17.30;10.17;;;1.50;99.90;;;;;;5043452;28;20029;-82
2021/11/23 07:14:23;;;;;;;15.13;9.90;;;1.60;99.90;;;;;;5046838;28;20055;-82
2021/11/23 07:16:51;;;;;;;19.27;11.33;;;1.60;99.90;;;;;;5042883;28;20393;-87
2021/11/23 07:19:32;;;;;;;15.77;10.00;;;1.50;99.90;;;;;;5037151;28;20170;-87
2021/11/23 07:21:57;;;;;;;15.70;11.00;;;1.50;99.90;;;;;;5039781;28;20143;-87
2021/11/23 07:24:23;;;;;;;15.80;9.80;;;1.50;99.90;;;;;;5039379;28;20037;-85
2021/11/23 07:26:51;;;;;;;14.90;9.83;;;1.50;99.90;;;;;;5036357;28;20076;-87
2021/11/23 07:29:17;;;;;;;40.47;25.90;;;1.60;99.90;;;;;;5037443;28;20125;-87
2021/11/23 07:31:43;;;;;;;27.07;15.93;;;1.60;99.90;;;;;;5037611;28;20132;-87
2021/11/23 07:34:08;;;;;;;19.67;10.90;;;1.60;99.90;;;;;;5039612;28;20063;-87
2021/11/23 07:36:36;;;;;;;18.87;11.67;;;1.60;99.90;;;;;;5035689;28;20448;-87
2021/11/23 07:39:02;;;;;;;15.97;11.70;;;1.70;99.90;;;;;;5053766;28;20071;-87
2021/11/23 07:41:29;;;;;;;17.17;11.57;;;1.70;99.90;;;;;;5039342;28;20869;-87
2021/11/23 07:43:56;;;;;;;15.80;9.83;;;1.70;99.90;;;;;;5038163;28;20029;-87
2021/11/23 07:46:22;;;;;;;13.57;9.60;;;1.80;99.90;;;;;;5042817;28;20362;-87
2021/11/23 07:48:48;;;;;;;18.07;10.90;;;1.70;99.90;;;;;;5037826;28;20040;-87
2021/11/23 07:51:13;;;;;;;19.00;10.30;;;1.70;99.90;;;;;;5038548;28;20036;-87
2021/11/23 07:53:39;;;;;;;14.63;9.90;;;1.80;99.90;;;;;;5039691;28;20033;-87
2021/11/23 07:56:06;;;;;;;15.33;10.80;;;1.80;99.90;;;;;;5039724;28;20033;-79
2021/11/23 07:58:32;;;;;;;15.70;9.70;;;1.90;99.90;;;;;;5041091;28;20030;-79
2021/11/23 08:00:58;;;;;;;13.20;9.90;;;1.90;99.90;;;;;;5058680;28;20025;-79
2021/11/23 08:03:24;;;;;;;16.70;10.30;;;1.90;99.90;;;;;;5040104;28;20112;-84
2021/11/23 08:05:50;;;;;;;14.40;10.57;;;2.10;99.90;;;;;;5037915;28;20043;-85
2021/11/23 08:08:16;;;;;;;13.87;10.30;;;2.20;99.90;;;;;;5038246;28;20030;-84
2021/11/23 08:10:41;;;;;;;15.10;9.63;;;2.30;99.90;;;;;;5038410;28;20108;-84
2021/11/23 08:13:08;;;;;;;16.93;9.63;;;2.30;99.90;;;;;;5039057;28;20573;-84
2021/11/23 08:15:37;;;;;;;15.13;9.53;;;2.30;99.90;;;;;;5038211;28;20052;-84
2021/11/23 08:18:07;;;;;;;14.50;9.87;;;2.40;99.90;;;;;;5038513;28;20034;-79
2021/11/23 08:20:33;;;;;;;13.60;9.50;;;2.40;99.90;;;;;;5042096;28;20111;-79
2021/11/23 08:23:00;;;;;;;15.10;9.30;;;2.40;99.90;;;;;;5039413;28;20099;-79
2021/11/23 08:25:26;;;;;;;22.13;15.90;;;2.30;99.90;;;;;;5043718;28;20071;-79
2021/11/23 08:27:54;;;;;;;16.23;9.80;;;2.30;99.90;;;;;;5041169;28;20133;-79
2021/11/23 08:30:19;;;;;;;15.03;11.43;;;2.30;99.90;;;;;;5041755;28;20100;-79
2021/11/23 08:32:45;;;;;;;22.30;13.37;;;2.30;99.90;;;;;;5042593;28;20112;-79
2021/11/23 08:35:11;;;;;;;17.57;12.17;;;2.40;99.90;;;;;;5039241;28;20041;-79
2021/11/23 08:37:36;;;;;;;19.27;13.23;;;2.30;99.90;;;;;;5042350;28;20029;-79
2021/11/23 08:40:04;;;;;;;18.67;12.80;;;2.20;99.90;;;;;;5039234;28;20048;-79
2021/11/23 08:42:30;;;;;;;21.10;13.47;;;2.10;99.90;;;;;;5042360;28;20492;-79
2021/11/23 08:44:56;;;;;;;26.63;18.07;;;2.20;99.90;;;;;;5040293;28;20025;-79
2021/11/23 08:47:22;;;;;;;19.37;12.40;;;2.20;99.90;;;;;;5038885;28;20029;-84
2021/11/23 08:49:49;;;;;;;20.00;10.77;;;2.20;99.90;;;;;;5034791;28;20029;-84
2021/11/23 08:52:15;;;;;;;21.23;14.43;;;2.30;99.90;;;;;;5039051;28;20033;-82
2021/11/23 08:54:41;;;;;;;35.97;21.00;;;2.40;99.90;;;;;;5040279;28;20466;-82
2021/11/23 08:57:08;;;;;;;15.07;11.03;;;2.50;99.90;;;;;;5042718;28;20538;-87
2021/11/23 08:59:38;;;;;;;23.43;15.43;;;2.50;99.90;;;;;;5036804;28;20385;-87
2021/11/23 09:02:04;;;;;;;25.37;16.30;;;2.60;99.90;;;;;;5036681;28;20083;-87
2021/11/23 09:04:30;;;;;;;19.80;12.80;;;2.50;99.90;;;;;;5036329;28;20025;-87
2021/11/23 09:06:57;;;;;;;15.40;10.53;;;2.60;99.90;;;;;;5036307;28;20186;-86
2021/11/23 09:09:27;;;;;;;23.80;15.80;;;2.50;99.90;;;;;;5036086;28;20080;-79
2021/11/23 09:11:53;;;;;;;15.60;11.40;;;2.50;99.90;;;;;;5040020;28;20045;-79
2021/11/23 09:14:19;;;;;;;21.17;15.43;;;2.80;99.90;;;;;;5039147;28;20099;-80
2021/11/23 09:16:45;;;;;;;14.43;10.30;;;2.90;99.90;;;;;;5040218;28;20060;-79
2021/11/23 09:19:11;;;;;;;34.57;20.07;;;3.10;99.90;;;;;;5041477;28;20082;-79
2021/11/23 09:21:38;;;;;;;22.17;13.30;;;3.20;99.90;;;;;;5041175;28;20081;-79
2021/11/23 09:24:04;;;;;;;21.03;13.53;;;3.20;99.90;;;;;;5039184;28;20080;-79
2021/11/23 09:26:30;;;;;;;20.33;13.77;;;3.20;99.90;;;;;;5038909;28;20428;-79
2021/11/23 09:28:57;;;;;;;14.07;11.03;;;3.20;99.90;;;;;;5038675;28;20082;-85
2021/11/23 09:31:24;;;;;;;15.37;12.07;;;3.20;99.90;;;;;;5041549;28;20063;-85
2021/11/23 09:33:54;;;;;;;13.67;10.80;;;3.10;99.90;;;;;;5051346;23;20156;-85
2021/11/23 09:36:19;;;;;;;11.80;9.17;;;3.20;99.90;;;;;;5038704;28;20507;-85
2021/11/23 09:38:45;;;;;;;12.47;9.77;;;3.50;99.90;;;;;;5034381;28;20033;-84
2021/11/23 09:41:12;;;;;;;12.37;9.07;;;3.70;99.90;;;;;;5034707;28;20029;-85
2021/11/23 09:43:41;;;;;;;14.67;9.90;;;3.70;99.90;;;;;;5036067;28;20045;-85
2021/11/23 09:46:11;;;;;;;11.23;9.33;;;3.80;99.90;;;;;;5036118;28;20029;-85
2021/11/23 09:48:42;;;;;;;15.47;10.10;;;3.80;99.90;;;;;;5035063;28;20178;-85
2021/11/23 09:51:17;;;;;;;13.50;10.20;;;3.70;99.90;;;;;;5036125;28;20025;-85
2021/11/23 09:53:43;;;;;;;13.13;10.17;;;3.60;99.90;;;;;;5035442;28;20068;-85
2021/11/23 09:56:09;;;;;;;14.67;10.33;;;3.70;99.90;;;;;;5039421;28;20704;-86
2021/11/23 09:58:35;;;;;;;12.97;9.33;;;3.70;99.90;;;;;;5038859;28;20032;-85
2021/11/23 10:01:05;;;;;;;14.80;10.07;;;3.80;99.90;;;;;;5038392;28;20386;-85
2021/11/23 10:03:32;;;;;;;13.80;10.57;;;4.00;99.90;;;;;;5039744;28;20029;-85
2021/11/23 10:06:14;;;;;;;20.23;12.80;;;3.90;99.90;;;;;;5040510;28;20040;-85
2021/11/23 10:08:41;;;;;;;16.27;11.20;;;4.10;99.90;;;;;;5039170;28;20045;-86
2021/11/23 10:11:07;;;;;;;13.50;9.67;;;4.20;99.90;;;;;;5039483;28;20458;-84
2021/11/23 10:13:49;;;;;;;14.93;11.17;;;4.30;99.90;;;;;;5040764;28;20107;-85
2021/11/23 10:16:17;;;;;;;23.70;16.13;;;4.30;99.90;;;;;;5039966;28;20029;-85
2021/11/23 10:18:43;;;;;;;17.70;14.50;;;4.20;99.90;;;;;;5039212;28;20076;-85
2021/11/23 10:21:11;;;;;;;29.60;19.77;;;4.30;99.90;;;;;;5039800;28;20111;-85
2021/11/23 10:23:42;;;;;;;18.30;13.77;;;4.20;99.90;;;;;;5038845;28;20075;-85
2021/11/23 10:26:19;;;;;;;14.03;10.53;;;4.30;99.90;;;;;;5040566;28;20397;-85
2021/11/23 10:28:52;;;;;;;16.37;10.80;;;4.70;99.90;;;;;;5039087;28;20079;-85
2021/11/23 10:31:19;;;;;;;20.87;15.33;;;4.70;99.90;;;;;;5040559;28;20510;-85
2021/11/23 10:33:47;;;;;;;15.93;13.77;;;4.60;99.90;;;;;;5037709;28;20555;-85
2021/11/23 10:36:16;;;;;;;14.03;11.17;;;4.60;99.90;;;;;;5041596;28;20037;-85
2021/11/23 10:38:42;;;;;;;19.20;12.90;;;4.60;99.90;;;;;;5038269;28;20039;-85
2021/11/23 10:41:11;;;;;;;23.33;17.87;;;4.50;99.90;;;;;;5039051;28;21194;-85
2021/11/23 10:43:39;;;;;;;16.03;12.77;;;4.40;99.90;;;;;;5039158;28;20468;-85
2021/11/23 10:46:19;;;;;;;15.47;11.43;;;4.40;99.90;;;;;;5039851;28;20432;-85
2021/11/23 10:49:02;;;;;;;15.83;12.73;;;4.60;99.90;;;;;;5055549;28;20365;-85
2021/11/23 10:51:40;;;;;;;17.17;11.40;;;4.70;99.90;;;;;;5040160;28;20032;-84
2021/11/23 10:54:17;;;;;;;17.17;12.30;;;4.70;99.90;;;;;;5039573;28;20036;-84
2021/11/23 10:56:55;;;;;;;14.73;10.93;;;4.80;99.90;;;;;;5039504;28;20026;-82
2021/11/23 10:59:21;;;;;;;14.70;11.20;;;5.00;99.90;;;;;;5038819;28;20032;-82
2021/11/23 11:01:46;;;;;;;14.17;10.90;;;4.80;99.90;;;;;;5038133;28;20309;-82
2021/11/23 11:04:14;;;;;;;13.63;11.10;;;4.90;99.90;;;;;;5038240;28;20030;-82
2021/11/23 11:06:41;;;;;;;14.47;11.33;;;4.80;99.90;;;;;;5038161;28;20033;-82
2021/11/23 11:09:07;;;;;;;17.10;12.80;;;4.60;99.90;;;;;;5039118;28;20029;-82
2021/11/23 11:11:33;;;;;;;15.63;12.47;;;4.50;99.90;;;;;;5037042;28;20025;-82
2021/11/23 11:13:59;;;;;;;14.47;12.07;;;4.70;99.90;;;;;;5038717;28;20083;-83
2021/11/23 11:16:25;;;;;;;18.30;11.53;;;4.60;99.90;;;;;;5038717;28;20025;-83
2021/11/23 11:19:08;;;;;;;15.77;11.50;;;4.50;99.90;;;;;;5039270;28;20022;-82
2021/11/23 11:21:47;;;;;;;25.17;15.13;;;4.60;99.90;;;;;;5037797;28;20884;-82
2021/11/23 11:24:37;;;;;;;38.03;18.17;;;4.50;99.90;;;;;;5039241;28;20466;-83
2021/11/23 11:27:15;;;;;;;38.00;19.20;;;4.60;99.90;;;;;;5039148;28;20056;-83
2021/11/23 11:29:42;;;;;;;46.33;22.40;;;4.70;99.90;;;;;;5037708;28;20052;-83
2021/11/23 11:32:35;;;;;;;30.23;14.63;;;4.90;99.90;;;;;;5039055;28;20025;-82
2021/11/23 11:35:32;;;;;;;25.90;14.37;;;4.80;99.90;;;;;;5039189;28;20040;-83
2021/11/23 11:38:00;;;;;;;23.20;13.67;;;5.00;99.90;;;;;;5038472;28;20025;-83
2021/11/23 11:40:40;;;;;;;23.33;14.13;;;5.00;99.90;;;;;;5038589;28;20056;-83
2021/11/23 11:43:09;;;;;;;25.97;16.27;;;5.00;99.90;;;;;;5038299;28;20676;-83
2021/11/23 11:45:39;;;;;;;41.27;19.23;;;5.00;99.90;;;;;;5037961;28;20086;-83
2021/11/23 11:48:25;;;;;;;22.00;14.10;;;5.10;99.90;;;;;;5038348;28;20129;-83
2021/11/23 11:51:06;;;;;;;23.90;14.07;;;5.50;99.90;;;;;;5043078;28;20089;-86
2021/11/23 11:53:42;;;;;;;27.87;16.37;;;5.50;99.90;;;;;;5039455;28;20481;-86
2021/11/23 11:56:09;;;;;;;18.03;11.67;;;5.30;99.90;;;;;;5039850;28;20037;-86
2021/11/23 11:58:45;;;;;;;19.90;13.87;;;5.30;99.90;;;;;;5038195;28;20052;-86
2021/11/23 12:01:38;;;;;;;25.60;14.87;;;5.40;99.90;;;;;;5037781;28;20033;-86
2021/11/23 12:04:12;;;;;;;19.17;12.07;;;5.50;99.90;;;;;;5039963;28;20081;-86
2021/11/23 12:06:56;;;;;;;57.10;29.47;;;5.80;99.90;;;;;;5040568;28;20029;-87
2021/11/23 12:09:34;;;;;;;23.20;12.90;;;5.70;99.90;;;;;;5038994;28;20116;-86
2021/11/23 12:12:12;;;;;;;20.23;12.33;;;6.00;99.90;;;;;;5042185;28;20136;-83
2021/11/23 12:14:52;;;;;;;20.73;13.63;;;6.20;99.90;;;;;;5035922;28;20029;-83
2021/11/23 12:17:54;;;;;;;22.63;11.40;;;6.70;99.90;;;;;;5036401;28;20032;-84
2021/11/23 12:20:59;;;;;;;21.50;13.67;;;6.90;99.90;;;;;;5037922;28;20036;-84
2021/11/23 12:23:55;;;;;;;17.97;12.10;;;7.00;99.90;;;;;;5036458;28;20063;-84
2021/11/23 12:26:35;;;;;;;16.67;11.32;;;7.10;99.90;;;;;;5031311;28;20071;-84
2021/11/23 12:29:07;;;;;;;20.80;13.20;;;7.30;99.90;;;;;;5037786;28;20037;-83
2021/11/23 12:31:48;;;;;;;28.93;15.83;;;7.20;99.90;;;;;;5037130;28;20030;-83
2021/11/23 12:34:14;;;;;;;16.47;10.00;;;7.00;99.90;;;;;;5041787;28;20052;-84
2021/11/23 12:37:00;;;;;;;14.03;10.53;;;6.80;99.90;;;;;;5041544;28;20037;-83
2021/11/23 12:39:39;;;;;;;11.37;9.13;;;6.50;99.90;;;;;;5039294;28;20371;-84
2021/11/23 12:42:08;;;;;;;10.93;9.03;;;6.30;99.90;;;;;;5062127;28;20037;-84
2021/11/23 12:44:37;;;;;;;13.83;9.73;;;6.10;99.90;;;;;;5039958;28;20428;-85
2021/11/23 12:47:08;;;;;;;17.93;12.43;;;6.20;99.90;;;;;;5042042;28;20041;-85
2021/11/23 12:49:35;;;;;;;23.50;15.07;;;6.20;99.90;;;;;;5038860;28;20023;-85